Clearlake, Washington
Current Conditions -  °F | °C
As of 6:15 AM on Sunday 25 Jan 2015 (Local Time) from KBVS Reporting Station
Overcast Overcast  
Wind Chill: 11°   Ceiling: 100
Heat Index: 11°   Visibility: 1mi
Dew Point: 11°   Wind: 0mph
Humidity: 100%   Direction: NA
Pressure: 30.2"   Gusts: NA
Location:  48.46°N, 122.23°W
Report Text: KBVS 251415Z AUTO 00000KT 1SM BKN001 BKN016 OVC030 11/11 A3020 RMK A01 P000
Loading
Personal Weather Stations






























Interactive Weather Map New forecast layout! Learn more

10-Day Weather Forecast

Advertisements
Track Severe Weather on mobile